sensor_id;sensor_type;location;lat;lon;timestamp;P1;durP1;ratioP1;P2;durP2;ratioP2
5285;SDS011;2665;53.112;7.358;2023-03-14T00:00:09;13.33;;;2.67;;
5285;SDS011;2665;53.112;7.358;2023-03-14T00:02:40;11.23;;;3.10;;
5285;SDS011;2665;53.112;7.358;2023-03-14T00:05:06;10.37;;;2.40;;
5285;SDS011;2665;53.112;7.358;2023-03-14T00:07:33;5.73;;;1.90;;
5285;SDS011;2665;53.112;7.358;2023-03-14T00:10:05;17.73;;;2.80;;
5285;SDS011;2665;53.112;7.358;2023-03-14T00:12:32;12.03;;;2.10;;
5285;SDS011;2665;53.112;7.358;2023-03-14T00:14:58;10.53;;;2.60;;
5285;SDS011;2665;53.112;7.358;2023-03-14T00:17:25;10.57;;;2.20;;
5285;SDS011;2665;53.112;7.358;2023-03-14T00:19:51;16.00;;;3.00;;
5285;SDS011;2665;53.112;7.358;2023-03-14T00:22:19;12.47;;;2.50;;
5285;SDS011;2665;53.112;7.358;2023-03-14T00:24:45;6.10;;;2.20;;
5285;SDS011;2665;53.112;7.358;2023-03-14T00:27:11;16.30;;;2.33;;
5285;SDS011;2665;53.112;7.358;2023-03-14T00:29:36;17.27;;;2.40;;
5285;SDS011;2665;53.112;7.358;2023-03-14T00:32:02;9.70;;;2.20;;
5285;SDS011;2665;53.112;7.358;2023-03-14T00:34:28;15.20;;;3.17;;
5285;SDS011;2665;53.112;7.358;2023-03-14T00:36:55;10.20;;;2.30;;
5285;SDS011;2665;53.112;7.358;2023-03-14T00:39:21;10.17;;;3.90;;
5285;SDS011;2665;53.112;7.358;2023-03-14T00:41:47;11.50;;;2.23;;
5285;SDS011;2665;53.112;7.358;2023-03-14T00:44:13;9.77;;;2.63;;
5285;SDS011;2665;53.112;7.358;2023-03-14T00:46:38;14.47;;;1.90;;
5285;SDS011;2665;53.112;7.358;2023-03-14T00:49:04;18.47;;;2.33;;
5285;SDS011;2665;53.112;7.358;2023-03-14T00:51:29;10.20;;;2.10;;
5285;SDS011;2665;53.112;7.358;2023-03-14T00:53:55;14.90;;;3.00;;
5285;SDS011;2665;53.112;7.358;2023-03-14T00:56:20;14.37;;;2.47;;
5285;SDS011;2665;53.112;7.358;2023-03-14T00:58:46;14.23;;;2.17;;
5285;SDS011;2665;53.112;7.358;2023-03-14T01:01:13;6.40;;;2.20;;
5285;SDS011;2665;53.112;7.358;2023-03-14T01:03:40;6.90;;;1.90;;
5285;SDS011;2665;53.112;7.358;2023-03-14T01:06:06;13.20;;;2.17;;
5285;SDS011;2665;53.112;7.358;2023-03-14T01:08:33;3.73;;;1.53;;
5285;SDS011;2665;53.112;7.358;2023-03-14T01:10:59;7.70;;;1.97;;
5285;SDS011;2665;53.112;7.358;2023-03-14T01:13:24;8.00;;;2.60;;
5285;SDS011;2665;53.112;7.358;2023-03-14T01:15:50;5.60;;;2.07;;
5285;SDS011;2665;53.112;7.358;2023-03-14T01:18:15;5.57;;;2.00;;
5285;SDS011;2665;53.112;7.358;2023-03-14T01:20:41;5.60;;;2.00;;
5285;SDS011;2665;53.112;7.358;2023-03-14T01:23:06;7.53;;;1.97;;
5285;SDS011;2665;53.112;7.358;2023-03-14T01:25:32;5.80;;;2.17;;
5285;SDS011;2665;53.112;7.358;2023-03-14T01:27:58;11.80;;;2.03;;
5285;SDS011;2665;53.112;7.358;2023-03-14T01:30:25;4.90;;;1.63;;
5285;SDS011;2665;53.112;7.358;2023-03-14T01:32:51;7.00;;;1.33;;
5285;SDS011;2665;53.112;7.358;2023-03-14T01:35:16;5.50;;;2.30;;
5285;SDS011;2665;53.112;7.358;2023-03-14T01:37:42;6.77;;;1.90;;
5285;SDS011;2665;53.112;7.358;2023-03-14T01:40:09;15.70;;;2.30;;
5285;SDS011;2665;53.112;7.358;2023-03-14T01:42:36;5.53;;;2.40;;
5285;SDS011;2665;53.112;7.358;2023-03-14T01:45:01;6.60;;;2.20;;
5285;SDS011;2665;53.112;7.358;2023-03-14T01:47:27;6.07;;;2.47;;
5285;SDS011;2665;53.112;7.358;2023-03-14T01:49:54;3.50;;;1.70;;
5285;SDS011;2665;53.112;7.358;2023-03-14T01:55:10;7.47;;;1.73;;
5285;SDS011;2665;53.112;7.358;2023-03-14T01:57:40;6.70;;;1.57;;
5285;SDS011;2665;53.112;7.358;2023-03-14T02:02:39;5.00;;;1.20;;
5285;SDS011;2665;53.112;7.358;2023-03-14T02:05:10;4.70;;;1.00;;
5285;SDS011;2665;53.112;7.358;2023-03-14T02:10:14;5.63;;;2.30;;
5285;SDS011;2665;53.112;7.358;2023-03-14T02:12:43;4.33;;;1.33;;
5285;SDS011;2665;53.112;7.358;2023-03-14T02:15:11;5.67;;;1.90;;
5285;SDS011;2665;53.112;7.358;2023-03-14T02:17:36;8.97;;;1.50;;
5285;SDS011;2665;53.112;7.358;2023-03-14T02:22:46;6.43;;;1.90;;
5285;SDS011;2665;53.112;7.358;2023-03-14T02:28:00;7.10;;;2.20;;
5285;SDS011;2665;53.112;7.358;2023-03-14T02:30:27;3.30;;;1.50;;
5285;SDS011;2665;53.112;7.358;2023-03-14T02:32:58;5.50;;;1.50;;
5285;SDS011;2665;53.112;7.358;2023-03-14T02:35:39;10.33;;;2.07;;
5285;SDS011;2665;53.112;7.358;2023-03-14T02:40:49;9.00;;;2.30;;
5285;SDS011;2665;53.112;7.358;2023-03-14T02:43:15;8.20;;;1.80;;
5285;SDS011;2665;53.112;7.358;2023-03-14T02:48:10;8.20;;;2.00;;
5285;SDS011;2665;53.112;7.358;2023-03-14T02:50:43;4.27;;;1.97;;
5285;SDS011;2665;53.112;7.358;2023-03-14T02:53:12;6.27;;;1.90;;
5285;SDS011;2665;53.112;7.358;2023-03-14T02:55:44;4.70;;;1.70;;
5285;SDS011;2665;53.112;7.358;2023-03-14T02:58:11;10.03;;;2.23;;
5285;SDS011;2665;53.112;7.358;2023-03-14T03:00:36;8.40;;;2.50;;
5285;SDS011;2665;53.112;7.358;2023-03-14T03:03:02;14.73;;;2.80;;
5285;SDS011;2665;53.112;7.358;2023-03-14T03:05:30;6.43;;;2.33;;
5285;SDS011;2665;53.112;7.358;2023-03-14T03:07:56;10.53;;;2.10;;
5285;SDS011;2665;53.112;7.358;2023-03-14T03:10:22;5.17;;;2.03;;
5285;SDS011;2665;53.112;7.358;2023-03-14T03:12:48;5.13;;;1.50;;
5285;SDS011;2665;53.112;7.358;2023-03-14T03:15:13;8.87;;;2.37;;
5285;SDS011;2665;53.112;7.358;2023-03-14T03:17:39;8.97;;;2.40;;
5285;SDS011;2665;53.112;7.358;2023-03-14T03:20:05;7.93;;;2.63;;
5285;SDS011;2665;53.112;7.358;2023-03-14T03:22:33;7.50;;;2.40;;
5285;SDS011;2665;53.112;7.358;2023-03-14T03:25:00;7.97;;;2.67;;
5285;SDS011;2665;53.112;7.358;2023-03-14T03:27:25;16.90;;;2.53;;
5285;SDS011;2665;53.112;7.358;2023-03-14T03:29:51;5.63;;;2.00;;
5285;SDS011;2665;53.112;7.358;2023-03-14T03:32:16;4.23;;;2.40;;
5285;SDS011;2665;53.112;7.358;2023-03-14T03:34:42;5.93;;;1.97;;
5285;SDS011;2665;53.112;7.358;2023-03-14T03:37:08;9.57;;;2.53;;
5285;SDS011;2665;53.112;7.358;2023-03-14T03:39:33;12.60;;;3.20;;
5285;SDS011;2665;53.112;7.358;2023-03-14T03:41:59;6.87;;;2.10;;
5285;SDS011;2665;53.112;7.358;2023-03-14T03:44:24;8.60;;;2.20;;
5285;SDS011;2665;53.112;7.358;2023-03-14T03:46:50;4.70;;;1.70;;
5285;SDS011;2665;53.112;7.358;2023-03-14T03:49:15;7.23;;;1.93;;
5285;SDS011;2665;53.112;7.358;2023-03-14T03:51:41;5.00;;;1.50;;
5285;SDS011;2665;53.112;7.358;2023-03-14T03:54:06;6.53;;;1.50;;
5285;SDS011;2665;53.112;7.358;2023-03-14T03:56:32;5.00;;;1.53;;
5285;SDS011;2665;53.112;7.358;2023-03-14T03:58:58;4.20;;;1.20;;
5285;SDS011;2665;53.112;7.358;2023-03-14T04:01:23;4.13;;;1.50;;
5285;SDS011;2665;53.112;7.358;2023-03-14T04:03:49;5.17;;;1.77;;
5285;SDS011;2665;53.112;7.358;2023-03-14T04:06:14;2.70;;;1.33;;
5285;SDS011;2665;53.112;7.358;2023-03-14T04:08:40;5.60;;;1.53;;
5285;SDS011;2665;53.112;7.358;2023-03-14T04:11:06;6.33;;;1.47;;
5285;SDS011;2665;53.112;7.358;2023-03-14T04:13:32;3.70;;;2.30;;
5285;SDS011;2665;53.112;7.358;2023-03-14T04:15:58;3.17;;;1.60;;
5285;SDS011;2665;53.112;7.358;2023-03-14T04:18:23;2.87;;;1.27;;
5285;SDS011;2665;53.112;7.358;2023-03-14T04:20:52;3.60;;;1.27;;
5285;SDS011;2665;53.112;7.358;2023-03-14T04:23:19;5.00;;;1.37;;
5285;SDS011;2665;53.112;7.358;2023-03-14T04:25:46;6.17;;;2.13;;
5285;SDS011;2665;53.112;7.358;2023-03-14T04:28:12;9.93;;;1.77;;
5285;SDS011;2665;53.112;7.358;2023-03-14T04:30:37;7.20;;;1.97;;
5285;SDS011;2665;53.112;7.358;2023-03-14T04:33:03;3.23;;;1.83;;
5285;SDS011;2665;53.112;7.358;2023-03-14T04:35:30;4.37;;;1.57;;
5285;SDS011;2665;53.112;7.358;2023-03-14T04:37:56;5.10;;;1.93;;
5285;SDS011;2665;53.112;7.358;2023-03-14T04:40:22;11.93;;;2.30;;
5285;SDS011;2665;53.112;7.358;2023-03-14T04:42:47;6.87;;;1.87;;
5285;SDS011;2665;53.112;7.358;2023-03-14T04:45:13;2.90;;;1.40;;
5285;SDS011;2665;53.112;7.358;2023-03-14T04:47:39;8.03;;;2.00;;
5285;SDS011;2665;53.112;7.358;2023-03-14T04:50:04;10.93;;;2.20;;
5285;SDS011;2665;53.112;7.358;2023-03-14T04:52:30;9.30;;;2.23;;
5285;SDS011;2665;53.112;7.358;2023-03-14T04:54:56;5.90;;;1.97;;
5285;SDS011;2665;53.112;7.358;2023-03-14T04:57:21;8.20;;;2.47;;
5285;SDS011;2665;53.112;7.358;2023-03-14T04:59:47;2.47;;;1.20;;
5285;SDS011;2665;53.112;7.358;2023-03-14T05:02:12;4.90;;;1.97;;
5285;SDS011;2665;53.112;7.358;2023-03-14T05:04:38;5.53;;;1.70;;
5285;SDS011;2665;53.112;7.358;2023-03-14T05:07:04;4.80;;;1.63;;
5285;SDS011;2665;53.112;7.358;2023-03-14T05:09:29;5.00;;;2.30;;
5285;SDS011;2665;53.112;7.358;2023-03-14T05:11:55;9.13;;;1.73;;
5285;SDS011;2665;53.112;7.358;2023-03-14T05:14:20;6.53;;;1.97;;
5285;SDS011;2665;53.112;7.358;2023-03-14T05:16:46;3.10;;;1.87;;
5285;SDS011;2665;53.112;7.358;2023-03-14T05:19:12;6.23;;;1.50;;
5285;SDS011;2665;53.112;7.358;2023-03-14T05:21:37;3.70;;;1.87;;
5285;SDS011;2665;53.112;7.358;2023-03-14T05:24:03;7.10;;;2.00;;
5285;SDS011;2665;53.112;7.358;2023-03-14T05:26:29;7.93;;;3.07;;
5285;SDS011;2665;53.112;7.358;2023-03-14T05:28:54;5.63;;;2.00;;
5285;SDS011;2665;53.112;7.358;2023-03-14T05:31:20;2.37;;;1.40;;
5285;SDS011;2665;53.112;7.358;2023-03-14T05:33:46;6.33;;;2.20;;
5285;SDS011;2665;53.112;7.358;2023-03-14T05:36:12;4.40;;;1.63;;
5285;SDS011;2665;53.112;7.358;2023-03-14T05:38:37;5.23;;;2.97;;
5285;SDS011;2665;53.112;7.358;2023-03-14T05:41:03;9.33;;;2.30;;
5285;SDS011;2665;53.112;7.358;2023-03-14T05:43:29;4.93;;;2.10;;
5285;SDS011;2665;53.112;7.358;2023-03-14T05:45:54;3.80;;;2.07;;
5285;SDS011;2665;53.112;7.358;2023-03-14T05:48:20;6.27;;;2.03;;
5285;SDS011;2665;53.112;7.358;2023-03-14T05:50:46;3.90;;;1.93;;
5285;SDS011;2665;53.112;7.358;2023-03-14T05:53:13;6.50;;;2.40;;
5285;SDS011;2665;53.112;7.358;2023-03-14T05:55:39;4.70;;;2.23;;
5285;SDS011;2665;53.112;7.358;2023-03-14T05:58:05;5.70;;;2.40;;
5285;SDS011;2665;53.112;7.358;2023-03-14T06:00:31;4.50;;;3.03;;
5285;SDS011;2665;53.112;7.358;2023-03-14T06:02:57;6.23;;;2.60;;
5285;SDS011;2665;53.112;7.358;2023-03-14T06:05:22;5.43;;;2.67;;
5285;SDS011;2665;53.112;7.358;2023-03-14T06:07:48;6.30;;;1.90;;
5285;SDS011;2665;53.112;7.358;2023-03-14T06:10:14;12.20;;;2.17;;
5285;SDS011;2665;53.112;7.358;2023-03-14T06:12:40;5.37;;;2.40;;
5285;SDS011;2665;53.112;7.358;2023-03-14T06:15:05;6.40;;;2.10;;
5285;SDS011;2665;53.112;7.358;2023-03-14T06:17:31;3.37;;;1.90;;
5285;SDS011;2665;53.112;7.358;2023-03-14T06:19:57;7.07;;;2.47;;
5285;SDS011;2665;53.112;7.358;2023-03-14T06:22:23;9.20;;;2.50;;
5285;SDS011;2665;53.112;7.358;2023-03-14T06:24:48;3.40;;;1.33;;
5285;SDS011;2665;53.112;7.358;2023-03-14T06:27:14;8.03;;;1.90;;
5285;SDS011;2665;53.112;7.358;2023-03-14T06:29:39;6.20;;;2.20;;
5285;SDS011;2665;53.112;7.358;2023-03-14T06:32:05;4.73;;;1.80;;
5285;SDS011;2665;53.112;7.358;2023-03-14T06:34:31;3.13;;;1.50;;
5285;SDS011;2665;53.112;7.358;2023-03-14T06:36:56;5.93;;;2.43;;
5285;SDS011;2665;53.112;7.358;2023-03-14T06:39:22;11.03;;;2.77;;
5285;SDS011;2665;53.112;7.358;2023-03-14T06:41:47;6.83;;;1.97;;
5285;SDS011;2665;53.112;7.358;2023-03-14T06:44:13;9.80;;;2.53;;
5285;SDS011;2665;53.112;7.358;2023-03-14T06:46:41;4.20;;;1.80;;
5285;SDS011;2665;53.112;7.358;2023-03-14T06:49:07;4.10;;;1.60;;
5285;SDS011;2665;53.112;7.358;2023-03-14T06:51:33;7.00;;;1.93;;
5285;SDS011;2665;53.112;7.358;2023-03-14T06:53:59;8.50;;;2.57;;
5285;SDS011;2665;53.112;7.358;2023-03-14T06:56:24;6.60;;;1.57;;
5285;SDS011;2665;53.112;7.358;2023-03-14T06:58:50;8.07;;;2.20;;
5285;SDS011;2665;53.112;7.358;2023-03-14T07:01:23;6.80;;;1.93;;
5285;SDS011;2665;53.112;7.358;2023-03-14T07:03:51;7.50;;;2.23;;
5285;SDS011;2665;53.112;7.358;2023-03-14T07:06:16;5.23;;;1.90;;
5285;SDS011;2665;53.112;7.358;2023-03-14T07:08:42;3.70;;;1.63;;
5285;SDS011;2665;53.112;7.358;2023-03-14T07:11:08;14.50;;;2.17;;
5285;SDS011;2665;53.112;7.358;2023-03-14T07:13:36;4.93;;;2.17;;
5285;SDS011;2665;53.112;7.358;2023-03-14T07:16:05;3.60;;;2.17;;
5285;SDS011;2665;53.112;7.358;2023-03-14T07:18:31;5.47;;;1.60;;
5285;SDS011;2665;53.112;7.358;2023-03-14T07:20:57;5.60;;;1.63;;
5285;SDS011;2665;53.112;7.358;2023-03-14T07:23:22;5.30;;;1.57;;
5285;SDS011;2665;53.112;7.358;2023-03-14T07:25:48;8.13;;;1.70;;
5285;SDS011;2665;53.112;7.358;2023-03-14T07:28:13;3.40;;;1.67;;
5285;SDS011;2665;53.112;7.358;2023-03-14T07:30:39;10.70;;;2.70;;
5285;SDS011;2665;53.112;7.358;2023-03-14T07:33:05;4.30;;;1.90;;
5285;SDS011;2665;53.112;7.358;2023-03-14T07:35:30;4.63;;;1.77;;
5285;SDS011;2665;53.112;7.358;2023-03-14T07:37:56;2.70;;;0.90;;
5285;SDS011;2665;53.112;7.358;2023-03-14T07:40:21;2.30;;;0.77;;
5285;SDS011;2665;53.112;7.358;2023-03-14T07:42:47;2.87;;;0.90;;
5285;SDS011;2665;53.112;7.358;2023-03-14T07:45:13;2.13;;;0.70;;
5285;SDS011;2665;53.112;7.358;2023-03-14T07:47:38;5.07;;;0.77;;
5285;SDS011;2665;53.112;7.358;2023-03-14T07:50:04;12.63;;;1.17;;
5285;SDS011;2665;53.112;7.358;2023-03-14T07:52:30;3.97;;;1.10;;
5285;SDS011;2665;53.112;7.358;2023-03-14T07:54:56;6.60;;;1.60;;
5285;SDS011;2665;53.112;7.358;2023-03-14T07:57:22;3.83;;;0.80;;
5285;SDS011;2665;53.112;7.358;2023-03-14T07:59:48;3.63;;;1.10;;
5285;SDS011;2665;53.112;7.358;2023-03-14T08:02:14;4.20;;;0.90;;
5285;SDS011;2665;53.112;7.358;2023-03-14T08:04:40;9.53;;;0.83;;
5285;SDS011;2665;53.112;7.358;2023-03-14T08:07:06;4.60;;;0.90;;
5285;SDS011;2665;53.112;7.358;2023-03-14T08:09:31;9.17;;;1.50;;
5285;SDS011;2665;53.112;7.358;2023-03-14T08:11:57;4.80;;;0.90;;
5285;SDS011;2665;53.112;7.358;2023-03-14T08:14:23;3.67;;;0.73;;
5285;SDS011;2665;53.112;7.358;2023-03-14T08:16:51;3.90;;;0.80;;
5285;SDS011;2665;53.112;7.358;2023-03-14T08:19:17;3.70;;;0.93;;
5285;SDS011;2665;53.112;7.358;2023-03-14T08:21:42;3.57;;;0.70;;
5285;SDS011;2665;53.112;7.358;2023-03-14T08:24:08;5.33;;;0.77;;
5285;SDS011;2665;53.112;7.358;2023-03-14T08:26:34;2.37;;;0.80;;
5285;SDS011;2665;53.112;7.358;2023-03-14T08:28:59;2.57;;;0.77;;
5285;SDS011;2665;53.112;7.358;2023-03-14T08:31:25;2.90;;;0.80;;
5285;SDS011;2665;53.112;7.358;2023-03-14T08:33:51;2.27;;;0.73;;
5285;SDS011;2665;53.112;7.358;2023-03-14T08:36:18;2.57;;;1.00;;
5285;SDS011;2665;53.112;7.358;2023-03-14T08:38:44;2.70;;;1.10;;
5285;SDS011;2665;53.112;7.358;2023-03-14T08:41:10;2.33;;;0.50;;
5285;SDS011;2665;53.112;7.358;2023-03-14T08:43:36;1.50;;;0.50;;
5285;SDS011;2665;53.112;7.358;2023-03-14T08:46:02;1.90;;;0.50;;
5285;SDS011;2665;53.112;7.358;2023-03-14T08:48:28;1.50;;;0.50;;
5285;SDS011;2665;53.112;7.358;2023-03-14T08:50:55;1.60;;;0.50;;
5285;SDS011;2665;53.112;7.358;2023-03-14T08:53:31;1.47;;;0.50;;
5285;SDS011;2665;53.112;7.358;2023-03-14T08:55:57;1.60;;;0.40;;
5285;SDS011;2665;53.112;7.358;2023-03-14T08:58:22;1.50;;;0.40;;
5285;SDS011;2665;53.112;7.358;2023-03-14T09:00:48;1.40;;;0.40;;
5285;SDS011;2665;53.112;7.358;2023-03-14T09:03:14;1.90;;;0.80;;
5285;SDS011;2665;53.112;7.358;2023-03-14T09:05:40;1.53;;;0.50;;
5285;SDS011;2665;53.112;7.358;2023-03-14T09:08:06;2.37;;;0.60;;
5285;SDS011;2665;53.112;7.358;2023-03-14T09:10:31;1.40;;;0.50;;
5285;SDS011;2665;53.112;7.358;2023-03-14T09:12:57;1.40;;;0.40;;
5285;SDS011;2665;53.112;7.358;2023-03-14T09:15:23;1.47;;;0.50;;
5285;SDS011;2665;53.112;7.358;2023-03-14T09:17:49;1.70;;;0.50;;
5285;SDS011;2665;53.112;7.358;2023-03-14T09:20:15;1.60;;;0.50;;
5285;SDS011;2665;53.112;7.358;2023-03-14T09:22:41;3.20;;;0.70;;
5285;SDS011;2665;53.112;7.358;2023-03-14T09:25:07;1.97;;;0.57;;
5285;SDS011;2665;53.112;7.358;2023-03-14T09:27:32;5.10;;;0.70;;
5285;SDS011;2665;53.112;7.358;2023-03-14T09:29:58;5.60;;;0.70;;
5285;SDS011;2665;53.112;7.358;2023-03-14T09:32:24;1.80;;;0.80;;
5285;SDS011;2665;53.112;7.358;2023-03-14T09:34:49;2.10;;;1.00;;
5285;SDS011;2665;53.112;7.358;2023-03-14T09:37:15;15.33;;;1.53;;
5285;SDS011;2665;53.112;7.358;2023-03-14T09:39:41;3.07;;;0.77;;
5285;SDS011;2665;53.112;7.358;2023-03-14T09:42:07;3.87;;;1.07;;
5285;SDS011;2665;53.112;7.358;2023-03-14T09:44:40;7.00;;;1.00;;
5285;SDS011;2665;53.112;7.358;2023-03-14T09:47:19;2.93;;;0.73;;
5285;SDS011;2665;53.112;7.358;2023-03-14T09:49:47;3.83;;;0.80;;
5285;SDS011;2665;53.112;7.358;2023-03-14T09:54:50;3.70;;;0.97;;
5285;SDS011;2665;53.112;7.358;2023-03-14T09:57:24;6.57;;;1.80;;
5285;SDS011;2665;53.112;7.358;2023-03-14T09:59:51;7.67;;;2.60;;
5285;SDS011;2665;53.112;7.358;2023-03-14T10:02:20;3.20;;;1.07;;
5285;SDS011;2665;53.112;7.358;2023-03-14T10:04:48;12.23;;;1.80;;
5285;SDS011;2665;53.112;7.358;2023-03-14T10:07:17;4.70;;;1.00;;
5285;SDS011;2665;53.112;7.358;2023-03-14T10:09:48;7.73;;;1.47;;
5285;SDS011;2665;53.112;7.358;2023-03-14T10:12:15;5.63;;;1.50;;
5285;SDS011;2665;53.112;7.358;2023-03-14T10:14:48;12.27;;;1.60;;
5285;SDS011;2665;53.112;7.358;2023-03-14T10:17:16;7.37;;;1.87;;
5285;SDS011;2665;53.112;7.358;2023-03-14T10:19:54;13.53;;;1.70;;
5285;SDS011;2665;53.112;7.358;2023-03-14T10:22:23;6.00;;;1.40;;
5285;SDS011;2665;53.112;7.358;2023-03-14T10:24:52;6.43;;;1.80;;
5285;SDS011;2665;53.112;7.358;2023-03-14T10:27:31;8.03;;;2.50;;
5285;SDS011;2665;53.112;7.358;2023-03-14T10:30:00;7.37;;;1.97;;
5285;SDS011;2665;53.112;7.358;2023-03-14T10:32:33;6.20;;;1.30;;
5285;SDS011;2665;53.112;7.358;2023-03-14T10:37:34;11.40;;;1.83;;
5285;SDS011;2665;53.112;7.358;2023-03-14T10:40:00;7.83;;;1.97;;
5285;SDS011;2665;53.112;7.358;2023-03-14T10:42:31;6.27;;;1.97;;
5285;SDS011;2665;53.112;7.358;2023-03-14T10:45:03;12.20;;;2.43;;
5285;SDS011;2665;53.112;7.358;2023-03-14T10:47:33;9.97;;;2.60;;
5285;SDS011;2665;53.112;7.358;2023-03-14T10:50:18;17.07;;;2.50;;
5285;SDS011;2665;53.112;7.358;2023-03-14T10:52:49;9.30;;;2.47;;
5285;SDS011;2665;53.112;7.358;2023-03-14T10:55:16;9.07;;;1.40;;
5285;SDS011;2665;53.112;7.358;2023-03-14T10:57:42;6.77;;;1.93;;
5285;SDS011;2665;53.112;7.358;2023-03-14T11:00:13;8.57;;;2.63;;
5285;SDS011;2665;53.112;7.358;2023-03-14T11:02:57;16.87;;;2.27;;
5285;SDS011;2665;53.112;7.358;2023-03-14T11:05:26;5.50;;;1.43;;
5285;SDS011;2665;53.112;7.358;2023-03-14T11:08:07;5.90;;;1.77;;
5285;SDS011;2665;53.112;7.358;2023-03-14T11:10:46;9.73;;;2.37;;
5285;SDS011;2665;53.112;7.358;2023-03-14T11:13:26;5.83;;;1.90;;
5285;SDS011;2665;53.112;7.358;2023-03-14T11:16:14;10.70;;;1.90;;
5285;SDS011;2665;53.112;7.358;2023-03-14T11:19:03;9.87;;;1.97;;
5285;SDS011;2665;53.112;7.358;2023-03-14T11:24:27;9.63;;;1.53;;
5285;SDS011;2665;53.112;7.358;2023-03-14T11:27:17;7.97;;;1.50;;
5285;SDS011;2665;53.112;7.358;2023-03-14T11:34:53;4.07;;;1.87;;
5285;SDS011;2665;53.112;7.358;2023-03-14T11:37:27;10.33;;;1.80;;
5285;SDS011;2665;53.112;7.358;2023-03-14T11:40:11;2.97;;;0.70;;
5285;SDS011;2665;53.112;7.358;2023-03-14T11:45:34;5.83;;;1.43;;
5285;SDS011;2665;53.112;7.358;2023-03-14T11:48:07;7.80;;;1.63;;
5285;SDS011;2665;53.112;7.358;2023-03-14T11:51:09;5.20;;;1.23;;
5285;SDS011;2665;53.112;7.358;2023-03-14T11:56:54;10.67;;;2.40;;
5285;SDS011;2665;53.112;7.358;2023-03-14T11:59:31;5.70;;;1.37;;
5285;SDS011;2665;53.112;7.358;2023-03-14T12:02:41;6.70;;;1.03;;
5285;SDS011;2665;53.112;7.358;2023-03-14T12:10:48;4.83;;;0.90;;
5285;SDS011;2665;53.112;7.358;2023-03-14T12:13:17;3.50;;;1.50;;
5285;SDS011;2665;53.112;7.358;2023-03-14T12:15:50;7.10;;;1.40;;
5285;SDS011;2665;53.112;7.358;2023-03-14T12:18:31;7.63;;;0.90;;
5285;SDS011;2665;53.112;7.358;2023-03-14T12:21:00;4.60;;;1.13;;
5285;SDS011;2665;53.112;7.358;2023-03-14T12:23:28;2.80;;;1.23;;
5285;SDS011;2665;53.112;7.358;2023-03-14T12:28:37;5.33;;;0.90;;
5285;SDS011;2665;53.112;7.358;2023-03-14T12:31:46;7.03;;;1.37;;
5285;SDS011;2665;53.112;7.358;2023-03-14T12:34:02;3.00;;;0.73;;
5285;SDS011;2665;53.112;7.358;2023-03-14T12:42:00;2.27;;;0.70;;
5285;SDS011;2665;53.112;7.358;2023-03-14T12:46:57;5.97;;;1.30;;
5285;SDS011;2665;53.112;7.358;2023-03-14T12:49:34;2.43;;;0.67;;
5285;SDS011;2665;53.112;7.358;2023-03-14T12:52:10;3.97;;;1.00;;
5285;SDS011;2665;53.112;7.358;2023-03-14T13:00:22;8.50;;;1.23;;
5285;SDS011;2665;53.112;7.358;2023-03-14T13:02:48;5.90;;;0.93;;
5285;SDS011;2665;53.112;7.358;2023-03-14T13:05:18;5.17;;;1.20;;
5285;SDS011;2665;53.112;7.358;2023-03-14T13:15:48;5.97;;;1.37;;
5285;SDS011;2665;53.112;7.358;2023-03-14T13:18:35;2.70;;;0.67;;
5285;SDS011;2665;53.112;7.358;2023-03-14T13:21:10;3.50;;;1.07;;
5285;SDS011;2665;53.112;7.358;2023-03-14T13:23:58;11.40;;;1.33;;
5285;SDS011;2665;53.112;7.358;2023-03-14T13:26:32;3.03;;;1.23;;
5285;SDS011;2665;53.112;7.358;2023-03-14T13:29:08;7.87;;;1.23;;
5285;SDS011;2665;53.112;7.358;2023-03-14T13:31:39;8.30;;;1.13;;
5285;SDS011;2665;53.112;7.358;2023-03-14T13:34:10;2.47;;;1.03;;
5285;SDS011;2665;53.112;7.358;2023-03-14T13:36:36;2.80;;;1.13;;
5285;SDS011;2665;53.112;7.358;2023-03-14T13:39:02;4.67;;;1.20;;
5285;SDS011;2665;53.112;7.358;2023-03-14T13:41:31;11.23;;;1.17;;
5285;SDS011;2665;53.112;7.358;2023-03-14T13:44:21;2.70;;;0.90;;
5285;SDS011;2665;53.112;7.358;2023-03-14T13:46:47;3.90;;;1.00;;
5285;SDS011;2665;53.112;7.358;2023-03-14T13:49:18;2.50;;;0.97;;
5285;SDS011;2665;53.112;7.358;2023-03-14T13:51:50;3.23;;;0.83;;
5285;SDS011;2665;53.112;7.358;2023-03-14T13:54:16;5.03;;;1.40;;
5285;SDS011;2665;53.112;7.358;2023-03-14T13:56:44;5.60;;;1.00;;
5285;SDS011;2665;53.112;7.358;2023-03-14T13:59:23;10.03;;;0.87;;
5285;SDS011;2665;53.112;7.358;2023-03-14T14:01:50;6.23;;;0.90;;
5285;SDS011;2665;53.112;7.358;2023-03-14T14:04:18;10.53;;;0.90;;
5285;SDS011;2665;53.112;7.358;2023-03-14T14:06:53;3.20;;;1.13;;
5285;SDS011;2665;53.112;7.358;2023-03-14T14:09:27;5.37;;;1.33;;
5285;SDS011;2665;53.112;7.358;2023-03-14T14:14:21;5.30;;;1.27;;
5285;SDS011;2665;53.112;7.358;2023-03-14T14:16:49;4.20;;;0.97;;
5285;SDS011;2665;53.112;7.358;2023-03-14T14:19:16;4.83;;;1.37;;
5285;SDS011;2665;53.112;7.358;2023-03-14T14:21:43;4.53;;;0.90;;
5285;SDS011;2665;53.112;7.358;2023-03-14T14:24:13;4.10;;;0.97;;
5285;SDS011;2665;53.112;7.358;2023-03-14T14:26:58;4.33;;;1.23;;
5285;SDS011;2665;53.112;7.358;2023-03-14T14:29:29;3.60;;;1.10;;
5285;SDS011;2665;53.112;7.358;2023-03-14T14:32:03;3.00;;;0.90;;
5285;SDS011;2665;53.112;7.358;2023-03-14T14:34:38;3.83;;;0.70;;
5285;SDS011;2665;53.112;7.358;2023-03-14T14:37:13;2.40;;;0.90;;
5285;SDS011;2665;53.112;7.358;2023-03-14T14:39:40;2.87;;;1.10;;
5285;SDS011;2665;53.112;7.358;2023-03-14T14:42:12;3.60;;;0.83;;
5285;SDS011;2665;53.112;7.358;2023-03-14T14:44:38;2.40;;;0.70;;
5285;SDS011;2665;53.112;7.358;2023-03-14T14:47:05;5.60;;;1.03;;
5285;SDS011;2665;53.112;7.358;2023-03-14T14:49:31;6.20;;;0.97;;
5285;SDS011;2665;53.112;7.358;2023-03-14T14:52:02;5.00;;;0.80;;
5285;SDS011;2665;53.112;7.358;2023-03-14T14:54:33;3.07;;;0.87;;
5285;SDS011;2665;53.112;7.358;2023-03-14T14:57:04;3.43;;;0.90;;
5285;SDS011;2665;53.112;7.358;2023-03-14T14:59:30;6.37;;;1.13;;
5285;SDS011;2665;53.112;7.358;2023-03-14T15:02:00;2.63;;;0.97;;
5285;SDS011;2665;53.112;7.358;2023-03-14T15:04:27;2.70;;;1.03;;
5285;SDS011;2665;53.112;7.358;2023-03-14T15:06:55;3.87;;;0.80;;
5285;SDS011;2665;53.112;7.358;2023-03-14T15:09:21;6.23;;;1.20;;
5285;SDS011;2665;53.112;7.358;2023-03-14T15:11:47;3.23;;;1.20;;
5285;SDS011;2665;53.112;7.358;2023-03-14T15:14:13;7.73;;;1.00;;
5285;SDS011;2665;53.112;7.358;2023-03-14T15:16:39;4.07;;;1.03;;
5285;SDS011;2665;53.112;7.358;2023-03-14T15:19:10;3.37;;;1.00;;
5285;SDS011;2665;53.112;7.358;2023-03-14T15:21:46;3.87;;;0.90;;
5285;SDS011;2665;53.112;7.358;2023-03-14T15:24:12;2.70;;;1.00;;
5285;SDS011;2665;53.112;7.358;2023-03-14T15:26:37;1.90;;;1.00;;
5285;SDS011;2665;53.112;7.358;2023-03-14T15:29:03;2.60;;;0.67;;
5285;SDS011;2665;53.112;7.358;2023-03-14T15:31:32;3.60;;;1.23;;
5285;SDS011;2665;53.112;7.358;2023-03-14T15:33:58;4.17;;;0.60;;
5285;SDS011;2665;53.112;7.358;2023-03-14T15:36:25;3.60;;;0.97;;
5285;SDS011;2665;53.112;7.358;2023-03-14T15:38:52;3.70;;;0.97;;
5285;SDS011;2665;53.112;7.358;2023-03-14T15:41:19;4.00;;;0.60;;
5285;SDS011;2665;53.112;7.358;2023-03-14T15:43:46;3.97;;;0.90;;
5285;SDS011;2665;53.112;7.358;2023-03-14T15:46:12;4.90;;;0.80;;
5285;SDS011;2665;53.112;7.358;2023-03-14T15:48:39;1.73;;;0.70;;
5285;SDS011;2665;53.112;7.358;2023-03-14T15:51:05;2.53;;;1.00;;
5285;SDS011;2665;53.112;7.358;2023-03-14T15:53:31;4.50;;;1.20;;
5285;SDS011;2665;53.112;7.358;2023-03-14T15:55:57;2.70;;;1.10;;
5285;SDS011;2665;53.112;7.358;2023-03-14T15:58:23;4.33;;;1.07;;
5285;SDS011;2665;53.112;7.358;2023-03-14T16:00:49;6.47;;;1.97;;
5285;SDS011;2665;53.112;7.358;2023-03-14T16:03:15;4.13;;;1.37;;
5285;SDS011;2665;53.112;7.358;2023-03-14T16:05:40;5.90;;;1.30;;
5285;SDS011;2665;53.112;7.358;2023-03-14T16:08:06;3.77;;;1.00;;
5285;SDS011;2665;53.112;7.358;2023-03-14T16:10:33;4.10;;;1.17;;
5285;SDS011;2665;53.112;7.358;2023-03-14T16:12:59;2.43;;;0.90;;
5285;SDS011;2665;53.112;7.358;2023-03-14T16:15:25;5.70;;;1.10;;
5285;SDS011;2665;53.112;7.358;2023-03-14T16:17:53;4.50;;;1.00;;
5285;SDS011;2665;53.112;7.358;2023-03-14T16:20:20;2.43;;;0.90;;
5285;SDS011;2665;53.112;7.358;2023-03-14T16:22:46;3.70;;;1.23;;
5285;SDS011;2665;53.112;7.358;2023-03-14T16:25:12;4.60;;;1.17;;
5285;SDS011;2665;53.112;7.358;2023-03-14T16:27:38;3.83;;;1.00;;